Milton, North Dakota
Current Conditions -  °F | °C
As of 11:15 AM on Sunday 21 Dec 2014 (Local Time) from KD55 Reporting Station
Moderate Fog Moderate Fog  
Wind Chill: 19°   Ceiling: 100
Heat Index: 25°   Visibility: 0mi
Dew Point: 23°   Wind: 5mph
Humidity: 93%   Direction: 360°N
Pressure: 29.59"   Gusts: NA
Location:  48.63°N, 98.04°W
Report Text: KD55 211715Z AUTO 36004KT M1/4SM FZFG OVC001 M04/M05 A2959 RMK AO2
Loading
Personal Weather Stations






























Interactive Weather Map New forecast layout! Learn more

10-Day Weather Forecast

Advertisements
Track Severe Weather on mobile